Flight Track Log - Related Links

Times and Time Zones

All times are in EDT time to prevent confusion due to time zone crossing. See the AAY805 flight status page for this flight to view local times or setup timezone preferences in your user account.

Time Position Orientation Groundspeed Altitude Reporting Facility
EDT Latitude Longitude Course Direction KTS MPH feet Rate Location/Type
Sun 02:18:35 PM 34.9347 -85.1967 155° Southeast 240 276 4,300  Level Atlanta Center
Sun 02:19:35 PM 34.8703 -85.1603 155° Southeast 251 289 6,700 2,400 Climbing Atlanta Center
Sun 02:20:35 PM 34.7933 -85.1136 154° Southeast 279 321 9,100 2,000 Climbing Atlanta Center
Sun 02:21:35 PM 34.7125 -85.0672 155° Southeast 305 351 10,700 1,750 Climbing Atlanta Center
Sun 02:22:35 PM 34.6189 -85.0131 155° Southeast 342 394 12,600 2,100 Climbing Atlanta Center
Sun 02:23:35 PM 34.5256 -84.9564 153° Southeast 368 423 14,900 1,250 Climbing Atlanta Center
Sun 02:24:35 PM 34.4278 -84.9025 156° South 380 437 15,100 100 Climbing Atlanta Center
Sun 02:25:35 PM 34.3322 -84.8411 152° Southeast 385 443 15,100  Level Atlanta Center
Sun 02:26:35 PM 34.2492 -84.7525 139° Southeast 385 443 15,100 1,000 Level Atlanta Center
Sun 02:27:35 PM 34.1664 -84.6664 139° Southeast 390 449 17,100 1,750 Climbing Atlanta Center
Sun 02:28:35 PM 34.0581 -84.6206 161° South 390 449 18,600 1,850 Climbing Atlanta Center
Sun 02:29:35 PM 33.9497 -84.5722 160° South 402 463 20,800 2,000 Climbing Atlanta Center
Sun 02:30:35 PM 33.8392 -84.5289 162° South 419 482 22,600 1,550 Climbing Atlanta Center
Sun 02:31:35 PM 33.7244 -84.4808 161° South 426 490 23,900 1,500 Climbing Atlanta Center
Sun 02:32:35 PM 33.6078 -84.4403 164° South 437 503 25,600 1,100 Climbing Atlanta Center
Sun 02:33:35 PM 33.4994 -84.4325 177° South 437 503 26,100 200 Climbing Atlanta Center
Sun 02:34:35 PM 33.3783 -84.4319 180° South 437 503 26,000 350 Descending Atlanta Center
Sun 02:35:35 PM 33.2572 -84.4289 179° South 437 503 26,800 1,000 Climbing Atlanta Center
Sun 02:36:35 PM 33.1319 -84.4283 180° South 442 509 28,000 1,200 Climbing Atlanta Center
Sun 02:37:35 PM 33.0047 -84.4228 178° South 448 516 29,200 1,100 Climbing Atlanta Center
Sun 02:38:35 PM 32.8772 -84.4222 180° South 458 527 30,200 1,100 Climbing Atlanta Center
Sun 02:39:35 PM 32.7353 -84.4192 179° South 458 527 31,400 1,350 Climbing Atlanta Center
Sun 02:40:35 PM 32.6081 -84.4161 179° South 458 527 32,900 1,450 Climbing Atlanta Center
Sun 02:41:35 PM 32.4808 -84.4156 180° South 458 527 34,300 1,050 Climbing Atlanta Center
Sun 02:42:35 PM 32.3575 -84.4125 179° South 458 527 35,000 628 Climbing Atlanta Center
Sun 02:44:27 PM 32.1303 -84.4061 179° South 446 513 36,100 733 Climbing Jacksonville Center
Sun 02:45:27 PM 32.0156 -84.4044 179° South 441 507 37,100 500 Climbing Jacksonville Center
Sun 02:46:27 PM 31.8944 -84.4022 179° South 441 507 37,100 -50 Level Jacksonville Center
Sun 02:47:28 PM 31.7733 -84.4003 179° South 441 507 37,000  Descending Jacksonville Center
Sun 02:48:27 PM 31.6503 -84.3983 179° South 441 507 37,100 50 Climbing Jacksonville Center
Sun 02:49:27 PM 31.5269 -84.3989 180° South 441 507 37,100  Level Jacksonville Center
Sun 02:50:28 PM 31.4039 -84.3944 178° South 441 507 37,100 -50 Level Jacksonville Center
Sun 02:51:27 PM 31.2828 -84.3925 179° South 441 507 37,000 -50 Descending Jacksonville Center
Sun 02:52:27 PM 31.1597 -84.3906 179° South 441 507 37,000 50 Level Jacksonville Center
Sun 02:53:27 PM 31.0364 -84.3886 179° South 441 507 37,100  Climbing Jacksonville Center
Sun 02:54:27 PM 30.9133 -84.3867 179° South 441 507 37,000 -50 Descending Jacksonville Center
Sun 02:55:27 PM 30.7903 -84.3797 177° South 441 507 37,000  Level Jacksonville Center
Sun 02:56:27 PM 30.6672 -84.3731 177° South 441 507 37,000  Level Jacksonville Center
Sun 02:57:28 PM 30.5483 -84.3664 177° South 441 507 37,000  Level Jacksonville Center
Sun 02:58:27 PM 30.4253 -84.3525 174° South 441 507 37,000  Level Jacksonville Center
Sun 02:59:28 PM 30.3089 -84.2931 156° South 436 502 37,000 -350 Level Jacksonville Center
Sun 03:00:27 PM 30.1928 -84.2144 150° Southeast 436 502 36,300 -857 Descending Jacksonville Center
Sun 03:01:27 PM 30.0872 -84.1386 148° Southeast 436 502 35,300 -950 Descending Jacksonville Center
Sun 03:02:27 PM 29.9856 -84.0628 147° Southeast 441 507 34,400 -950 Descending Jacksonville Center
Sun 03:03:27 PM 29.8797 -83.9872 148° Southeast 441 507 33,400 -1,000 Descending Jacksonville Center
Sun 03:04:27 PM 29.7761 -83.9094 147° Southeast 446 513 32,400 -992 Descending Jacksonville Center
Sun 03:05:28 PM 29.6700 -83.8319 148° Southeast 451 519 31,400 -1,000 Descending Jacksonville Center
Sun 03:06:27 PM 29.5664 -83.7594 149° Southeast 451 519 30,400 -958 Descending Jacksonville Center
Sun 03:07:27 PM 29.4625 -83.6844 148° Southeast 451 519 29,500 -950 Descending Jacksonville Center
Sun 03:08:27 PM 29.3606 -83.6097 147° Southeast 451 519 28,500 -950 Descending Jacksonville Center
Sun 03:09:27 PM 29.2586 -83.5378 148° Southeast 446 513 27,600 -1,250 Descending Jacksonville Center
Sun 03:10:27 PM 29.1589 -83.4681 149° Southeast 441 507 26,000 -1,650 Descending Jacksonville Center
Sun 03:11:27 PM 29.0589 -83.4081 152° Southeast 418 481 24,300 -1,750 Descending Jacksonville Center
Sun 03:12:27 PM 28.9672 -83.3506 151° Southeast 412 474 22,500 -1,750 Descending Jacksonville Center
Sun 03:13:27 PM 28.8694 -83.2861 150° Southeast 412 474 20,800 -1,731 Descending Jacksonville Center
Sun 03:15:03 PM 28.7000 -83.1833 152° Southeast 394 453 18,000 -1,654 Descending Tampa TRACON
Sun 03:16:03 PM 28.6167 -83.1333 152° Southeast 379 436 16,500 -1,469 Descending Tampa TRACON
Sun 03:16:41 PM 28.5692 -83.0956 145° Southeast 378 435 15,600 -1,620 Descending Miami Center
Sun 03:17:43 PM 28.4636 -83.0297 151° Southeast 372 428 13,800 -1,378 Descending Miami Center
Sun 03:19:09 PM 28.3500 -82.9667 154° Southeast 333 383 12,200 -1,296 Descending Tampa TRACON
Sun 03:19:48 PM 28.2931 -82.9403 158° South 332 382 11,100 -1,901 Descending Miami Center
Sun 03:20:50 PM 28.2139 -82.9044 158° South 311 358 9,000 -2,081 Descending Miami Center
Sun 03:21:52 PM 28.1406 -82.8686 157° South 294 338 6,800 -2,304 Descending Miami Center
Sun 03:22:55 PM 28.0542 -82.8253 156° South 288 331 4,200 -1,316 Descending Miami Center
Sun 03:24:59 PM 27.9264 -82.7608 156° South 254 292 2,700 -581 Descending Miami Center
Sun 03:26:01 PM 27.8753 -82.7467 166° South 226 260 2,400 -484 Descending Miami Center
Sun 03:27:03 PM 27.8264 -82.7331 166° South 208 239 1,700 -576 Descending Miami Center
Sun 03:28:06 PM 27.8394 -82.6886 72° East 169 194 1,200 -600 Descending Miami Center
Sun 03:29:03 PM 27.8833 -82.6833 North 137 158 500 -774 Descending Tampa TRACON
Sun 03:29:08 PM 27.8833 -82.6833 North 150 173 400 -1,200 Descending Miami Center

Login

Don't have an account? Register now (free) for customized features, flight alerts, and more!